KSCH/SCH METAR and TAF weather

Enter ICAO airport designator
Station Type Date Time Source
KSCH METAR 2020/09/23 01:55 UTC NOAA

KSCH 230155Z 03004KT 15SM CLR 12/04 A2993 RMK LAST


Station Type Date Time Source
KSCH Decoded METAR 2020/09/23 01:55 UTC NOAA

Schenectady Airport, NY, United States (KSCH) 42-51N 073-56W
Sep 22, 2020 - 09:55 PM EDT / 2020.09.23 0155 UTC
Wind: from the NNE (030 degrees) at 5 MPH (4 KT):0
Visibility: 15 mile(s):0
Sky conditions: clear
Temperature: 53 F (12 C)
Dew Point: 39 F (4 C)
Relative Humidity: 57%
Pressure (altimeter): 29.93 in. Hg (1013 hPa)
ob: KSCH 230155Z 03004KT 15SM CLR 12/04 A2993 RMK LAST
cycle: 2

Station Type Date Time Source
KSCH TAF UTC NOAA

Error!

Example: see airport list